createdAt,value
2023-01-29T01:33:40.611Z,23.20
2023-01-29T01:36:12.734Z,23.30
2023-01-29T01:38:44.899Z,21.80
2023-01-29T01:41:18.965Z,22.40
2023-01-29T01:43:50.603Z,22.20
2023-01-29T01:46:19.045Z,20.70
2023-01-29T01:48:49.184Z,22.40
2023-01-29T01:51:17.426Z,21.90
2023-01-29T01:53:58.291Z,24.80
2023-01-29T01:56:28.725Z,25.30
2023-01-29T01:58:58.124Z,23.00
2023-01-29T02:01:27.934Z,24.30
2023-01-29T02:04:23.356Z,22.70
2023-01-29T02:07:10.152Z,23.40
2023-01-29T02:09:46.632Z,23.00
2023-01-29T02:12:14.960Z,20.90
2023-01-29T02:14:43.265Z,22.40
2023-01-29T02:17:16.557Z,22.70
2023-01-29T02:19:50.914Z,22.80
2023-01-29T02:22:37.859Z,23.50
2023-01-29T02:25:22.814Z,21.30
2023-01-29T02:28:28.620Z,21.00
2023-01-29T02:31:02.126Z,21.20
2023-01-29T02:33:48.575Z,21.60
2023-01-29T02:36:37.897Z,20.20
2023-01-29T02:39:28.308Z,21.70
2023-01-29T02:42:11.813Z,20.10
2023-01-29T02:45:11.679Z,21.40
2023-01-29T02:47:54.083Z,21.30
2023-01-29T02:50:44.719Z,21.60
2023-01-29T02:53:16.562Z,21.80
2023-01-29T02:55:50.093Z,20.90
2023-01-29T02:58:27.220Z,20.80
2023-01-29T03:00:55.702Z,21.30
2023-01-29T03:03:26.273Z,20.70
2023-01-29T03:06:18.705Z,22.10
2023-01-29T03:08:54.552Z,18.60
2023-01-29T03:11:22.925Z,20.20
2023-01-29T03:14:07.727Z,20.90
2023-01-29T03:16:40.499Z,20.40
2023-01-29T03:19:36.321Z,21.40
2023-01-29T03:22:08.646Z,21.20
2023-01-29T03:25:03.826Z,21.00
2023-01-29T03:27:57.346Z,22.50
2023-01-29T03:33:35.838Z,20.90
2023-01-29T03:36:09.497Z,19.30
2023-01-29T03:38:37.812Z,20.20
2023-01-29T03:41:09.306Z,21.20
2023-01-29T03:46:40.027Z,21.10
2023-01-29T03:49:22.952Z,21.10
2023-01-29T03:52:14.843Z,19.00
2023-01-29T03:54:49.089Z,19.70
2023-01-29T03:57:29.102Z,21.00
2023-01-29T04:00:09.336Z,19.70
2023-01-29T04:03:00.682Z,20.70
2023-01-29T04:05:31.685Z,20.60
2023-01-29T04:08:16.642Z,21.70
2023-01-29T04:10:45.266Z,18.50
2023-01-29T04:13:14.196Z,20.40
2023-01-29T04:15:53.425Z,19.20
2023-01-29T04:18:26.893Z,19.40
2023-01-29T04:21:10.203Z,19.60
2023-01-29T04:23:38.359Z,19.50
2023-01-29T04:26:09.529Z,21.10
2023-01-29T04:28:59.720Z,18.60
2023-01-29T04:31:30.861Z,19.10
2023-01-29T04:34:31.839Z,18.50
2023-01-29T04:37:10.080Z,19.10
2023-01-29T04:40:05.595Z,18.90
2023-01-29T04:42:49.227Z,17.40
2023-01-29T04:45:23.826Z,18.20
2023-01-29T04:48:13.858Z,18.80
2023-01-29T04:50:47.471Z,18.90
2023-01-29T04:53:34.519Z,19.00
2023-01-29T04:56:12.592Z,17.30
2023-01-29T04:58:43.320Z,19.30
2023-01-29T05:01:13.414Z,20.60
2023-01-29T05:03:42.267Z,20.20
2023-01-29T05:06:11.277Z,19.70
2023-01-29T05:08:43.622Z,19.30
2023-01-29T05:11:12.459Z,19.40
2023-01-29T05:13:40.836Z,19.20
2023-01-29T05:16:13.944Z,20.40
2023-01-29T05:18:42.710Z,18.60
2023-01-29T05:21:11.363Z,19.70
2023-01-29T05:23:39.551Z,19.50
2023-01-29T05:26:10.231Z,22.50
2023-01-29T05:28:38.417Z,21.70
2023-01-29T05:31:06.806Z,20.70
2023-01-29T05:33:35.015Z,19.70
2023-01-29T05:36:04.032Z,22.60
2023-01-29T05:38:32.528Z,21.40
2023-01-29T05:41:00.745Z,21.10
2023-01-29T05:43:29.069Z,22.50
2023-01-29T05:45:58.929Z,22.60
2023-01-29T05:48:29.136Z,21.10
2023-01-29T05:51:02.035Z,23.60
2023-01-29T05:53:30.482Z,23.10
2023-01-29T05:56:01.317Z,23.80
2023-01-29T05:58:34.296Z,23.90
2023-01-29T06:01:16.552Z,19.60
2023-01-29T06:03:45.357Z,21.90
2023-01-29T06:06:16.199Z,22.70
2023-01-29T06:08:44.300Z,22.80
2023-01-29T06:11:13.167Z,22.50
2023-01-29T06:13:41.670Z,21.20
2023-01-29T06:16:11.308Z,24.00
2023-01-29T06:18:40.224Z,20.60
2023-01-29T06:21:11.203Z,22.30
2023-01-29T06:23:39.754Z,23.20
2023-01-29T06:26:11.237Z,21.00
2023-01-29T06:28:39.850Z,21.80
2023-01-29T06:31:26.493Z,23.40
2023-01-29T06:33:56.831Z,23.50
2023-01-29T06:36:24.980Z,22.50
2023-01-29T06:38:53.093Z,22.40
2023-01-29T06:41:25.768Z,23.20
2023-01-29T06:43:54.494Z,25.00
2023-01-29T06:46:22.639Z,23.10
2023-01-29T06:48:50.849Z,24.10
2023-01-29T06:51:23.085Z,28.40
2023-01-29T06:53:51.341Z,23.60
2023-01-29T06:56:19.623Z,26.60
2023-01-29T06:58:47.826Z,25.60
2023-01-29T07:01:33.468Z,26.20
2023-01-29T07:04:04.227Z,27.60
2023-01-29T07:06:33.570Z,25.90
2023-01-29T07:09:02.935Z,25.70
2023-01-29T07:11:35.140Z,26.00
2023-01-29T07:14:03.355Z,26.40
2023-01-29T07:16:31.826Z,24.90
2023-01-29T07:19:00.040Z,25.40
2023-01-29T07:21:28.330Z,24.10
2023-01-29T07:23:56.575Z,23.80
2023-01-29T07:26:24.861Z,22.80
2023-01-29T07:28:53.504Z,26.60
2023-01-29T07:31:23.089Z,24.50
2023-01-29T07:36:21.261Z,24.30
2023-01-29T07:38:50.715Z,23.50
2023-01-29T07:41:18.987Z,23.80
2023-01-29T07:43:47.640Z,25.20
2023-01-29T07:46:15.992Z,25.60
2023-01-29T07:48:45.757Z,24.40
2023-01-29T07:51:14.280Z,24.10
2023-01-29T07:53:44.568Z,24.50
2023-01-29T07:56:12.935Z,23.80
2023-01-29T07:58:41.203Z,26.60
2023-01-29T08:01:09.527Z,25.80
2023-01-29T08:03:37.831Z,25.90
2023-01-29T08:06:06.248Z,27.00
2023-01-29T08:08:34.736Z,25.20
2023-01-29T08:11:05.771Z,25.30
2023-01-29T08:13:34.277Z,24.60
2023-01-29T08:16:03.233Z,27.60
2023-01-29T08:18:31.715Z,26.20
2023-01-29T08:21:02.626Z,25.80
2023-01-29T08:23:30.796Z,25.10
2023-01-29T08:25:59.073Z,26.90
2023-01-29T08:28:27.420Z,28.00
2023-01-29T08:30:55.666Z,27.00
2023-01-29T08:33:37.172Z,28.00
2023-01-29T08:36:07.888Z,26.50
2023-01-29T08:38:36.696Z,25.90
2023-01-29T08:41:07.387Z,25.30
2023-01-29T10:21:20.185Z,32.50
2023-01-29T10:23:51.403Z,28.60
2023-01-29T10:26:21.402Z,27.70
2023-01-29T10:28:50.838Z,25.90
2023-01-29T10:31:29.998Z,26.40
2023-01-29T10:34:04.387Z,25.20
2023-01-29T10:36:53.057Z,25.80
2023-01-29T10:39:22.765Z,26.00
2023-01-29T10:41:56.822Z,25.30
2023-01-29T10:44:34.192Z,25.70
2023-01-29T10:47:41.247Z,23.40
2023-01-29T10:50:22.003Z,25.00
2023-01-29T10:53:12.616Z,26.20
2023-01-29T10:55:56.357Z,26.90
2023-01-29T10:58:30.598Z,24.10
2023-01-29T11:00:58.724Z,23.10
2023-01-29T11:03:31.254Z,22.00
2023-01-29T11:06:01.959Z,21.90
2023-01-29T11:08:56.518Z,24.50
2023-01-29T11:11:32.336Z,22.10
2023-01-29T11:14:07.328Z,21.80
2023-01-29T11:16:45.849Z,23.30
2023-01-29T11:19:15.337Z,22.10
2023-01-29T11:22:00.295Z,22.70
2023-01-29T11:24:29.514Z,21.50
2023-01-29T11:26:59.075Z,23.50
2023-01-29T11:29:30.413Z,24.40
2023-01-29T11:31:59.472Z,22.80
2023-01-29T11:34:27.916Z,21.50
2023-01-29T11:37:04.677Z,21.70
2023-01-29T11:39:33.209Z,20.50
2023-01-29T11:42:04.160Z,23.20
2023-01-29T11:44:34.460Z,22.60
2023-01-29T11:47:11.887Z,22.70
2023-01-29T11:49:41.347Z,24.30
2023-01-29T11:52:09.703Z,22.80
2023-01-29T11:54:40.434Z,21.70
2023-01-29T11:57:20.164Z,24.80
2023-01-29T11:59:50.423Z,23.40
2023-01-29T12:02:28.383Z,23.30
2023-01-29T12:05:07.348Z,22.10
2023-01-29T12:07:35.640Z,21.70
2023-01-29T12:10:04.244Z,22.70
2023-01-29T12:12:41.849Z,20.40
2023-01-29T12:15:19.707Z,19.00
2023-01-29T12:17:52.663Z,20.40
2023-01-29T12:20:25.723Z,20.90
2023-01-29T12:23:08.888Z,20.30
2023-01-29T12:25:45.003Z,20.90
2023-01-29T12:28:16.309Z,21.40
2023-01-29T12:30:53.461Z,20.50
2023-01-29T12:33:51.802Z,18.40
2023-01-29T12:36:27.121Z,18.90
2023-01-29T12:38:55.549Z,16.80
2023-01-29T12:41:38.939Z,16.30
2023-01-29T12:44:19.517Z,16.20
2023-01-29T12:46:50.923Z,14.80
2023-01-29T12:49:22.789Z,16.40
2023-01-29T12:52:07.829Z,16.30
2023-01-29T12:54:41.657Z,13.70
2023-01-29T12:57:34.733Z,16.00
2023-01-29T13:00:06.474Z,16.20
2023-01-29T13:02:49.026Z,14.30
2023-01-29T13:05:30.290Z,15.40
2023-01-29T13:08:02.548Z,16.20
2023-01-29T13:10:34.611Z,16.10
2023-01-29T13:13:12.341Z,14.60
2023-01-29T13:15:41.275Z,15.20
2023-01-29T13:18:33.132Z,15.10
2023-01-29T13:23:35.489Z,16.40
2023-01-29T13:26:04.005Z,16.80
2023-01-29T13:28:32.498Z,16.40
2023-01-29T13:31:32.015Z,16.20
2023-01-29T13:34:12.255Z,15.90
2023-01-29T13:37:01.486Z,16.90
2023-01-29T13:39:30.758Z,16.80
2023-01-29T13:42:00.402Z,14.80
2023-01-29T13:44:32.250Z,13.80
2023-01-29T13:47:05.394Z,13.80
2023-01-29T13:49:38.223Z,13.30
2023-01-29T13:52:29.028Z,16.20
2023-01-29T13:55:21.428Z,15.50
2023-01-29T13:57:55.375Z,15.10
2023-01-29T14:00:33.896Z,15.90
2023-01-29T14:03:04.694Z,15.90
2023-01-29T14:05:37.332Z,15.40
2023-01-29T14:08:08.930Z,16.50
2023-01-29T14:10:37.500Z,20.00
2023-01-29T14:13:19.231Z,16.20
2023-01-29T14:16:10.430Z,17.10
2023-01-29T14:18:49.740Z,16.20
2023-01-29T14:21:21.316Z,17.70
2023-01-29T14:23:50.565Z,17.00
2023-01-29T14:26:23.181Z,18.00
2023-01-29T14:29:14.463Z,15.50
2023-01-29T14:32:06.862Z,16.10
2023-01-29T14:34:35.994Z,16.00
2023-01-29T14:37:17.515Z,17.30
2023-01-29T14:39:53.394Z,18.00
2023-01-29T14:42:27.021Z,17.70
2023-01-29T14:44:58.629Z,19.10
2023-01-29T14:47:29.844Z,17.80
2023-01-29T14:50:21.558Z,18.40
2023-01-29T14:52:51.489Z,18.20
2023-01-29T14:55:27.339Z,17.90
2023-01-29T14:57:55.516Z,19.90
2023-01-29T15:00:31.771Z,20.00
2023-01-29T15:03:02.303Z,18.30
2023-01-29T15:05:36.504Z,20.20
2023-01-29T15:08:24.449Z,19.40
2023-01-29T15:11:14.154Z,19.30
2023-01-29T15:13:47.621Z,19.80
2023-01-29T15:16:24.689Z,20.70
2023-01-29T15:18:55.303Z,19.60
2023-01-29T15:21:23.794Z,19.50
2023-01-29T15:24:04.112Z,20.90
2023-01-29T15:26:32.658Z,18.00
2023-01-29T15:29:04.529Z,20.00
2023-01-29T15:31:34.551Z,17.80
2023-01-29T15:34:06.479Z,18.00
2023-01-29T15:36:34.842Z,20.10
2023-01-29T15:39:12.231Z,17.70
2023-01-29T15:41:40.574Z,18.00
2023-01-29T15:44:20.775Z,18.90
2023-01-29T15:46:54.481Z,19.10
2023-01-29T15:49:31.398Z,19.90
2023-01-29T15:52:01.234Z,19.30
2023-01-29T15:54:30.884Z,17.50
2023-01-29T15:57:00.754Z,17.00
2023-01-29T15:59:38.367Z,17.10
2023-01-29T16:02:29.766Z,13.80
2023-01-29T16:05:00.189Z,14.40
2023-01-29T18:29:05.739Z,10.80
2023-01-29T18:31:34.473Z,11.60
2023-01-29T18:34:04.536Z,10.20
2023-01-29T18:36:33.204Z,10.90
2023-01-29T18:39:01.331Z,10.40
2023-01-29T18:41:29.568Z,11.10
2023-01-29T18:43:57.738Z,10.20
2023-01-29T18:46:25.962Z,12.00
2023-01-29T18:48:54.415Z,12.60
2023-01-29T18:51:22.687Z,11.30
2023-01-29T18:53:51.472Z,11.30
2023-01-29T18:56:20.513Z,11.40
2023-01-29T18:58:51.976Z,12.40
2023-01-29T19:01:21.430Z,11.30
2023-01-29T19:03:49.782Z,11.40
2023-01-29T19:06:17.942Z,12.00
2023-01-29T19:08:47.516Z,11.50
2023-01-29T19:11:15.999Z,11.80
2023-01-29T19:13:46.148Z,10.70
2023-01-29T19:16:14.302Z,10.90
2023-01-29T19:18:42.588Z,11.70
2023-01-29T19:21:12.336Z,12.80
2023-01-29T19:23:42.654Z,11.20
2023-01-29T19:26:10.974Z,13.20
2023-01-29T19:28:39.339Z,13.70
2023-01-29T19:31:08.030Z,12.00
2023-01-29T19:33:37.259Z,12.70
2023-01-29T19:36:07.980Z,12.30
2023-01-29T19:38:38.833Z,14.80
2023-01-29T19:41:07.056Z,13.50
2023-01-29T19:43:35.269Z,11.70
2023-01-29T19:46:03.568Z,11.80
2023-01-29T19:48:31.761Z,11.80
2023-01-29T19:51:04.670Z,9.90
2023-01-29T19:53:32.969Z,9.00
2023-01-29T19:56:02.741Z,9.30
2023-01-29T19:58:31.437Z,9.90
2023-01-29T20:01:01.455Z,10.10
2023-01-29T20:03:29.909Z,9.80
2023-01-29T20:06:03.639Z,9.60
2023-01-29T20:08:31.974Z,9.90
2023-01-29T20:11:00.183Z,10.20
2023-01-29T20:13:28.731Z,11.80
2023-01-29T20:15:57.026Z,11.70
2023-01-29T20:18:28.962Z,10.80
2023-01-29T20:20:57.171Z,10.10
2023-01-29T20:23:37.142Z,9.50
2023-01-29T20:26:08.152Z,11.30
2023-01-29T20:28:36.714Z,11.80
2023-01-29T20:31:05.551Z,11.10
2023-01-29T20:33:34.833Z,11.30
2023-01-29T20:36:05.101Z,10.40
2023-01-29T20:38:34.703Z,10.10
2023-01-29T20:41:07.200Z,10.50
2023-01-29T20:43:36.431Z,10.00
2023-01-29T20:46:04.833Z,10.10
2023-01-29T20:48:33.758Z,9.70
2023-01-29T20:51:15.757Z,9.20
2023-01-29T20:53:46.007Z,9.40
2023-01-29T20:56:15.637Z,10.80
2023-01-29T20:58:45.028Z,10.20
2023-01-29T21:01:15.702Z,9.60
2023-01-29T21:03:43.957Z,9.40
2023-01-29T21:06:12.344Z,9.70
2023-01-29T21:08:40.663Z,10.10
2023-01-29T21:11:09.830Z,10.30
2023-01-29T21:13:38.056Z,10.30
2023-01-29T21:16:06.759Z,10.10
2023-01-29T21:18:34.951Z,10.10
2023-01-29T21:21:03.501Z,10.50
2023-01-29T21:23:31.615Z,9.70
2023-01-29T21:26:03.936Z,9.90
2023-01-29T21:28:32.946Z,9.70
2023-01-29T21:31:10.227Z,9.80
2023-01-29T21:33:38.601Z,9.70
2023-01-29T21:36:07.545Z,10.70
2023-01-29T21:38:36.410Z,8.70
2023-01-29T21:41:07.180Z,10.20
2023-01-29T21:43:35.713Z,9.00
2023-01-29T21:46:06.221Z,8.80
2023-01-29T21:48:34.401Z,9.60
2023-01-29T21:51:02.989Z,9.70
2023-01-29T21:53:31.535Z,10.20
2023-01-29T21:56:01.710Z,9.70
2023-01-29T21:58:30.734Z,9.50
2023-01-29T22:01:38.142Z,9.40
2023-01-29T22:04:08.991Z,9.20
2023-01-29T22:06:37.292Z,10.70
2023-01-29T22:09:07.675Z,10.00
2023-01-29T22:11:36.588Z,8.40
